createdAt,value
2019-05-18T00:00:03.903Z,99188.59
2019-05-18T00:05:09.892Z,99183.63
2019-05-18T00:15:26.384Z,99176.46
2019-05-18T00:26:02.355Z,99171.88
2019-05-18T00:31:07.863Z,99163.55
2019-05-18T00:36:13.312Z,99165.92
2019-05-18T00:41:18.626Z,99159.85
2019-05-18T00:46:23.891Z,99159.31
2019-05-18T00:51:29.280Z,99159.93
2019-05-18T00:56:34.592Z,99153.92
2019-05-18T01:01:39.969Z,99153.47
2019-05-18T01:06:45.724Z,99148.84
2019-05-18T01:11:51.143Z,99146.25
2019-05-18T01:16:56.659Z,99149.61
2019-05-18T01:22:01.971Z,99149.13
2019-05-18T01:27:07.382Z,99142.75
2019-05-18T01:32:12.706Z,99134.98
2019-05-18T01:37:18.154Z,99134.76
2019-05-18T01:42:23.622Z,99127.92
2019-05-18T01:47:28.969Z,99118.27
2019-05-18T01:52:34.337Z,99117.31
2019-05-18T01:57:39.677Z,99112.66
2019-05-18T02:02:45.366Z,99105.70
2019-05-18T02:07:50.969Z,99104.83
2019-05-18T02:12:56.376Z,99099.48
2019-05-18T02:18:01.726Z,99101.13
2019-05-18T02:23:07.170Z,99096.52
2019-05-18T02:28:12.490Z,99090.75
2019-05-18T02:33:17.913Z,99089.83
2019-05-18T02:38:23.271Z,99092.96
2019-05-18T02:43:28.582Z,99088.39
2019-05-18T02:48:48.901Z,99082.92
2019-05-18T02:53:41.065Z,99082.92
2019-05-18T02:58:46.359Z,99078.06
2019-05-18T03:03:51.771Z,99073.11
2019-05-18T03:08:57.086Z,99080.09
2019-05-18T03:14:02.577Z,99078.45
2019-05-18T03:19:09.297Z,99075.45
2019-05-18T03:24:14.736Z,99076.94
2019-05-18T03:29:20.191Z,99081.94
2019-05-18T03:34:25.622Z,99073.23
2019-05-18T03:39:30.960Z,99074.34
2019-05-18T03:44:36.201Z,99069.00
2019-05-18T03:49:41.515Z,99065.55
2019-05-18T03:54:46.907Z,99058.30
2019-05-18T03:59:52.221Z,99057.63
2019-05-18T04:04:57.631Z,99063.95
2019-05-18T04:10:02.946Z,99060.62
2019-05-18T04:15:08.766Z,99055.09
2019-05-18T04:20:14.299Z,99050.53
2019-05-18T04:25:19.588Z,99050.59
2019-05-18T04:30:25.116Z,99053.26
2019-05-18T04:35:30.383Z,99047.11
2019-05-18T04:40:35.832Z,99046.38
2019-05-18T04:45:41.214Z,99045.34
2019-05-18T04:50:46.598Z,99043.69
2019-05-18T04:55:51.944Z,99040.07
2019-05-18T05:00:57.302Z,99030.69
2019-05-18T05:06:02.618Z,99028.59
2019-05-18T05:11:07.848Z,99037.62
2019-05-18T05:16:13.460Z,99035.19
2019-05-18T05:21:18.739Z,99049.56
2019-05-18T05:26:24.206Z,99052.08
2019-05-18T05:31:29.770Z,99059.75
2019-05-18T05:36:35.030Z,99052.12
2019-05-18T05:41:40.272Z,99050.33
2019-05-18T05:46:45.643Z,99057.96
2019-05-18T05:51:51.057Z,99052.36
2019-05-18T05:56:56.379Z,99046.78
2019-05-18T06:02:02.017Z,99050.87
2019-05-18T06:07:07.375Z,99053.08
2019-05-18T06:12:12.661Z,99055.83
2019-05-18T06:17:18.062Z,99062.20
2019-05-18T06:22:23.449Z,99057.93
2019-05-18T06:27:28.814Z,99066.74
2019-05-18T06:32:34.055Z,99071.74
2019-05-18T06:37:39.427Z,99068.92
2019-05-18T06:42:44.674Z,99065.53
2019-05-18T06:47:50.027Z,99071.67
2019-05-18T06:52:55.353Z,99067.50
2019-05-18T06:58:01.985Z,99066.20
2019-05-18T07:03:07.285Z,99072.22
2019-05-18T07:08:12.938Z,99069.47
2019-05-18T07:13:18.355Z,99071.25
2019-05-18T07:18:23.585Z,99078.39
2019-05-18T07:23:29.038Z,99084.27
2019-05-18T07:28:34.646Z,99082.70
2019-05-18T07:33:40.187Z,99092.85
2019-05-18T07:38:45.835Z,99080.59
2019-05-18T07:43:51.329Z,99086.79
2019-05-18T07:50:12.295Z,99087.71
2019-05-18T07:55:17.862Z,99091.07
2019-05-18T08:00:22.875Z,99091.11
2019-05-18T08:10:45.121Z,99087.53
2019-05-18T08:15:50.449Z,99095.88
2019-05-18T08:20:55.215Z,99094.83
2019-05-18T08:26:00.160Z,99093.48
2019-05-18T08:31:05.102Z,99091.86
2019-05-18T08:36:10.830Z,99084.59
2019-05-18T08:41:15.608Z,99096.25
2019-05-18T08:46:20.631Z,99098.94
2019-05-18T08:51:25.475Z,99097.39
2019-05-18T08:56:30.715Z,99093.28
2019-05-18T09:01:36.479Z,99092.64
2019-05-18T09:06:41.222Z,99090.55
2019-05-18T09:11:46.436Z,99088.44
2019-05-18T09:16:51.567Z,99099.56
2019-05-18T09:21:56.343Z,99094.77
2019-05-18T09:27:02.236Z,99106.66
2019-05-18T09:32:07.331Z,99094.31
2019-05-18T09:37:12.354Z,99100.56
2019-05-18T09:42:17.243Z,99099.59
2019-05-18T09:47:22.667Z,99097.62
2019-05-18T09:52:44.075Z,99092.60
2019-05-18T09:57:34.187Z,99103.63
2019-05-18T10:02:39.487Z,99106.36
2019-05-18T10:07:44.460Z,99106.80
2019-05-18T10:12:49.294Z,99106.19
2019-05-18T10:17:54.224Z,99109.95
2019-05-18T10:23:11.966Z,99114.08
2019-05-18T10:28:05.730Z,99112.88
2019-05-18T10:33:11.006Z,99109.58
2019-05-18T10:38:16.087Z,99115.11
2019-05-18T10:43:20.841Z,99114.96
2019-05-18T10:48:25.745Z,99118.11
2019-05-18T10:53:30.526Z,99116.25
2019-05-18T10:58:35.888Z,99121.11
2019-05-18T11:03:40.769Z,99124.20
2019-05-18T11:08:45.658Z,99126.42
2019-05-18T11:13:50.407Z,99120.36
2019-05-18T11:18:55.176Z,99114.41
2019-05-18T11:24:00.087Z,99120.50
2019-05-18T11:29:04.870Z,99122.02
2019-05-18T11:34:09.712Z,99125.37
2019-05-18T11:39:14.547Z,99126.14
2019-05-18T11:44:19.549Z,99128.81
2019-05-18T11:49:24.374Z,99133.53
2019-05-18T11:54:29.104Z,99129.35
2019-05-18T11:59:34.929Z,99135.70
2019-05-18T12:04:40.121Z,99131.36
2019-05-18T12:09:45.110Z,99133.97
2019-05-18T12:14:49.789Z,99134.48
2019-05-18T12:19:54.669Z,99131.17
2019-05-18T12:24:59.451Z,99125.04
2019-05-18T12:30:04.483Z,99132.41
2019-05-18T12:35:09.599Z,99137.61
2019-05-18T12:40:18.660Z,99140.59
2019-05-18T12:45:24.111Z,99144.64
2019-05-18T12:50:29.320Z,99142.55
2019-05-18T12:55:34.342Z,99147.31
2019-05-18T13:00:39.221Z,99144.91
2019-05-18T13:05:44.071Z,99152.25
2019-05-18T13:10:49.029Z,99158.46
2019-05-18T13:15:53.695Z,99161.23
2019-05-18T13:20:58.746Z,99170.65
2019-05-18T13:26:03.941Z,99173.35
2019-05-18T13:31:08.950Z,99173.80
2019-05-18T13:36:13.759Z,99170.58
2019-05-18T13:41:18.636Z,99176.77
2019-05-18T13:46:24.106Z,99172.02
2019-05-18T13:51:28.978Z,99174.24
2019-05-18T13:56:34.029Z,99174.73
2019-05-18T14:01:38.991Z,99170.77
2019-05-18T14:06:43.958Z,99173.23
2019-05-18T14:11:49.155Z,99177.00
2019-05-18T14:16:54.119Z,99185.93
2019-05-18T14:21:59.272Z,99197.03
2019-05-18T14:27:04.166Z,99192.41
2019-05-18T14:32:11.090Z,99203.23
2019-05-18T14:37:16.026Z,99204.27
2019-05-18T14:42:21.043Z,99204.38
2019-05-18T14:47:27.514Z,99203.86
2019-05-18T14:52:32.563Z,99203.23
2019-05-18T14:57:37.419Z,99205.52
2019-05-18T15:02:42.189Z,99201.88
2019-05-18T15:07:46.937Z,99200.77
2019-05-18T15:12:51.795Z,99210.17
2019-05-18T15:17:56.937Z,99211.88
2019-05-18T15:23:01.724Z,99206.09
2019-05-18T15:28:07.046Z,99206.09
2019-05-18T15:33:11.936Z,99216.95
2019-05-18T15:38:16.737Z,99225.95
2019-05-18T15:43:21.558Z,99228.48
2019-05-18T15:48:26.789Z,99218.06
2019-05-18T15:53:31.677Z,99224.92
2019-05-18T15:58:36.555Z,99223.40
2019-05-18T16:03:41.513Z,99233.98
2019-05-18T16:08:46.621Z,99233.90
2019-05-18T16:13:51.536Z,99237.58
2019-05-18T16:18:56.362Z,99249.41
2019-05-18T16:24:01.260Z,99262.85
2019-05-18T16:29:06.240Z,99260.88
2019-05-18T16:34:11.450Z,99267.69
2019-05-18T16:39:16.394Z,99269.95
2019-05-18T16:44:21.259Z,99276.72
2019-05-18T16:49:26.125Z,99280.22
2019-05-18T16:54:30.898Z,99280.30
2019-05-18T16:59:35.944Z,99277.56
2019-05-18T17:04:40.866Z,99280.22
2019-05-18T17:09:45.599Z,99285.41
2019-05-18T17:14:51.014Z,99282.05
2019-05-18T17:19:56.183Z,99288.64
2019-05-18T17:25:01.259Z,99290.02
2019-05-18T17:30:06.483Z,99288.62
2019-05-18T17:35:11.922Z,99288.68
2019-05-18T17:40:18.274Z,99288.67
2019-05-18T17:45:23.288Z,99297.77
2019-05-18T17:50:28.329Z,99299.90
2019-05-18T17:55:33.225Z,99302.38
2019-05-18T18:00:38.192Z,99303.92
2019-05-18T18:05:43.020Z,99307.91
2019-05-18T18:16:04.679Z,99317.03
2019-05-18T18:21:09.660Z,99307.86
2019-05-18T18:26:14.326Z,99312.30
2019-05-18T18:31:19.091Z,99308.34
2019-05-18T18:36:24.387Z,99315.50
2019-05-18T18:46:59.707Z,99330.04
2019-05-18T18:52:05.420Z,99336.56
2019-05-18T19:08:08.532Z,99344.55
2019-05-18T19:24:07.493Z,99350.78
2019-05-18T19:29:12.244Z,99348.38
2019-05-18T19:34:17.309Z,99353.75
2019-05-18T19:39:22.189Z,99350.67
2019-05-18T19:44:27.010Z,99356.20
2019-05-18T19:49:31.767Z,99353.76
2019-05-18T19:54:36.651Z,99359.72
2019-05-18T19:59:41.418Z,99356.32
2019-05-18T20:05:05.901Z,99366.17
2019-05-18T20:09:53.045Z,99370.14
2019-05-18T20:14:57.929Z,99369.64
2019-05-18T20:20:02.739Z,99379.44
2019-05-18T20:25:08.647Z,99375.73
2019-05-18T20:30:14.112Z,99380.59
2019-05-18T20:35:19.010Z,99390.49
2019-05-18T20:40:24.251Z,99387.50
2019-05-18T20:45:28.991Z,99393.69
2019-05-18T20:50:33.759Z,99401.17
2019-05-18T20:55:38.730Z,99392.92
2019-05-18T21:00:43.469Z,99395.95
2019-05-18T21:05:48.740Z,99399.86
2019-05-18T21:10:53.686Z,99404.99
2019-05-18T21:15:58.408Z,99396.10
2019-05-18T21:21:03.208Z,99400.11
2019-05-18T21:26:07.969Z,99402.07
2019-05-18T21:31:12.922Z,99397.36
2019-05-18T21:36:17.711Z,99403.45
2019-05-18T21:41:22.650Z,99406.06
2019-05-18T21:46:27.561Z,99415.54
2019-05-18T21:51:32.382Z,99417.66
2019-05-18T21:56:37.346Z,99412.45
2019-05-18T22:01:42.673Z,99420.58
2019-05-18T22:06:47.550Z,99421.22
2019-05-18T22:11:52.310Z,99422.45
2019-05-18T22:16:57.227Z,99423.33
2019-05-18T22:22:02.062Z,99425.73
2019-05-18T22:27:06.989Z,99422.75
2019-05-18T22:32:12.045Z,99416.06
2019-05-18T22:37:17.110Z,99413.78
2019-05-18T22:42:22.047Z,99416.88
2019-05-18T22:47:26.887Z,99418.99
2019-05-18T22:52:31.790Z,99411.86
2019-05-18T22:57:36.759Z,99405.38
2019-05-18T23:02:41.519Z,99407.67
2019-05-18T23:07:46.639Z,99410.47
2019-05-18T23:12:51.507Z,99417.84
2019-05-18T23:17:56.489Z,99410.45
2019-05-18T23:23:01.290Z,99410.39
2019-05-18T23:28:06.087Z,99408.05
2019-05-18T23:33:10.911Z,99411.16
2019-05-18T23:38:15.767Z,99417.25
2019-05-18T23:43:20.605Z,99417.67
2019-05-18T23:48:25.421Z,99411.88
2019-05-18T23:53:30.123Z,99413.80
2019-05-18T23:58:34.944Z,99413.67
